Flight Track Log - Related Links

Times and Time Zones

All times are in EDT time to prevent confusion due to time zone crossing. See the UAL532 flight status page for this flight to view local times or setup timezone preferences in your user account.

Time Position Orientation Groundspeed Altitude Reporting Facility
EDT Latitude Longitude Course Direction KTS MPH feet Rate Location/Type
Wed 02:28:58 AM 33.9328 -118.4481 116° Southeast 186 214 1,700  Level Los Angeles Center
Wed 02:29:58 AM 33.8881 -118.5106 229° Southwest 247 284 4,100 2,281 Climbing Los Angeles Center
Wed 02:30:59 AM 33.8194 -118.5172 185° South 269 310 6,300 2,430 Climbing Los Angeles Center
Wed 02:31:59 AM 33.7436 -118.5217 183° South 276 318 9,000 2,083 Climbing Los Angeles Center
Wed 02:33:00 AM 33.6800 -118.4769 150° Southeast 303 349 10,500 1,884 Climbing Los Angeles Center
Wed 02:34:00 AM 33.6348 -118.3370 116° Southeast  Level FlightAware Approximate
Wed 02:34:00 AM 33.6528 -118.3742 108° East 329 379 12,800  Level Los Angeles Center
Wed 02:35:01 AM 33.6469 -118.2394 93° East 350 403 15,100 1,983 Climbing Los Angeles Center
Wed 02:36:01 AM 33.7125 -118.1464 50° Northeast 381 438 16,800 1,785 Climbing Los Angeles Center
Wed 02:37:02 AM 33.7950 -118.0667 39° Northeast 386 444 18,700 1,785 Climbing Los Angeles Center
Wed 02:38:02 AM 33.8806 -117.9825 39° Northeast 399 459 20,400 1,700 Climbing Los Angeles Center
Wed 02:39:02 AM 33.9689 -117.8942 40° Northeast 411 473 22,100 1,686 Climbing Los Angeles Center
Wed 02:40:03 AM 34.0603 -117.8047 39° Northeast 424 488 23,800 1,488 Climbing Los Angeles Center
Wed 02:41:03 AM 34.1467 -117.7011 45° Northeast 437 503 25,100 1,339 Climbing Los Angeles Center
Wed 02:42:04 AM 34.2297 -117.5881 48° Northeast 449 517 26,500 1,339 Climbing Los Angeles Center
Wed 02:43:04 AM 34.3158 -117.4711 48° Northeast 463 533 27,800 1,300 Climbing Los Angeles Center
Wed 02:44:04 AM 34.4133 -117.3372 49° Northeast 471 542 29,100 1,190 Climbing Los Angeles Center
Wed 02:45:05 AM 34.5000 -117.2161 49° Northeast 478 550 30,200 1,091 Climbing Los Angeles Center
Wed 02:46:05 AM 34.5894 -117.0928 49° Northeast 487 560 31,300 1,041 Climbing Los Angeles Center
Wed 02:47:06 AM 34.6792 -116.9708 48° Northeast 489 563 32,300 1,140 Climbing Los Angeles Center
Wed 02:48:06 AM 34.7697 -116.8458 49° Northeast 494 568 33,600 1,150 Climbing Los Angeles Center
Wed 02:49:06 AM 34.8589 -116.7222 49° Northeast 490 564 34,600 942 Climbing Los Angeles Center
Wed 02:50:07 AM 34.9475 -116.5989 49° Northeast 487 560 35,500 893 Climbing Los Angeles Center
Wed 02:51:07 AM 35.0394 -116.4794 47° Northeast 484 557 36,400 744 Climbing Los Angeles Center
Wed 02:52:08 AM 35.1336 -116.3625 45° Northeast 485 558 37,000 298 Climbing Los Angeles Center
Wed 02:53:08 AM 35.2283 -116.2436 46° Northeast 490 564 37,000  Level Los Angeles Center
Wed 02:54:08 AM 35.3192 -116.1247 47° Northeast 481 554 37,000  Level Los Angeles Center
Wed 02:55:09 AM 35.4122 -116.0081 46° Northeast 481 554 37,000  Level Los Angeles Center
Wed 02:56:09 AM 35.5192 -115.8783 45° Northeast 481 554 37,000  Level Los Angeles Center
Wed 02:57:10 AM 35.6111 -115.7606 46° Northeast 478 550 37,000  Level Los Angeles Center
Wed 02:58:10 AM 35.7014 -115.6422 47° Northeast 475 547 37,000  Level Los Angeles Center
Wed 02:59:10 AM 35.7928 -115.5258 46° Northeast 474 545 37,000  Level Los Angeles Center
Wed 03:00:11 AM 35.8828 -115.4111 46° Northeast 471 542 37,000  Level Los Angeles Center
Wed 03:01:11 AM 35.9719 -115.2961 46° Northeast 468 539 37,000  Level Los Angeles Center
Wed 03:02:11 AM 36.0583 -115.1825 47° Northeast 459 528 37,000  Level Los Angeles Center
Wed 03:03:12 AM 36.1475 -115.0697 46° Northeast 462 532 37,000  Level Los Angeles Center
Wed 03:04:12 AM 36.2364 -114.9578 45° Northeast 460 529 37,000  Level Los Angeles Center
Wed 03:05:13 AM 36.3247 -114.8461 46° Northeast 457 526 37,000  Level Los Angeles Center
Wed 03:06:13 AM 36.4133 -114.7342 45° Northeast 457 526 37,000  Level Los Angeles Center
Wed 03:07:13 AM 36.4994 -114.6211 47° Northeast 454 522 37,000  Level Los Angeles Center
Wed 03:08:14 AM 36.5861 -114.5083 46° Northeast 452 520 37,000  Level Los Angeles Center
Wed 03:09:14 AM 36.6742 -114.3936 46° Northeast 457 526 37,000  Level Los Angeles Center
Wed 03:10:15 AM 36.7600 -114.2775 47° Northeast 457 526 37,000  Level Los Angeles Center
Wed 03:11:15 AM 36.8278 -114.1378 59° Northeast 469 540 37,000  Level Los Angeles Center
Wed 03:12:15 AM 36.8950 -113.9989 59° Northeast 469 540 37,000  Level Los Angeles Center
Wed 03:13:16 AM 36.9669 -113.8506 59° Northeast 469 540 37,000  Level Los Angeles Center
Wed 03:14:16 AM 37.0333 -113.7111 59° Northeast 468 539 37,000  Level Los Angeles Center
Wed 03:15:16 AM 37.1000 -113.5717 59° Northeast 468 539 37,000  Level Los Angeles Center
Wed 03:16:17 AM 37.1653 -113.4333 59° Northeast 465 535 37,000  Level Los Angeles Center
Wed 03:17:17 AM 37.2314 -113.2939 59° Northeast 466 536 37,000  Level Los Angeles Center
Wed 03:18:17 AM 37.2964 -113.1569 59° Northeast 462 532 37,000  Level Los Angeles Center
Wed 03:19:18 AM 37.3597 -113.0200 60° Northeast 459 528 37,000  Level Los Angeles Center
Wed 03:20:18 AM 37.4200 -112.8844 61° Northeast 452 520 37,000  Level Los Angeles Center
Wed 03:21:18 AM 37.4936 -112.7239 60° Northeast 453 521 37,000  Level Los Angeles Center
Wed 03:22:19 AM 37.5558 -112.5900 60° Northeast 452 520 37,000  Level Los Angeles Center
Wed 03:23:19 AM 37.6189 -112.4558 59° Northeast 450 518 37,000  Level Los Angeles Center
Wed 03:24:19 AM 37.6817 -112.3217 59° Northeast 447 514 37,000  Level Los Angeles Center
Wed 03:25:20 AM 37.7525 -112.1911 56° Northeast 451 519 37,000  Level Los Angeles Center
Wed 03:26:20 AM 37.8267 -112.0658 53° Northeast 448 516 37,000  Level Los Angeles Center
Wed 03:27:00 AM 37.8708 -111.9886 54° Northeast 450 518 37,000  Level Denver Center
Wed 03:27:24 AM 37.8994 -111.9389 54° Northeast 448 516 37,000  Level Salt Lake Center
Wed 03:28:25 AM 37.9731 -111.8106 54° Northeast 450 518 37,000  Level Salt Lake Center
Wed 03:29:25 AM 38.0464 -111.6825 54° Northeast 450 518 37,000  Level Salt Lake Center
Wed 03:30:26 AM 38.1219 -111.5547 53° Northeast 454 522 37,000  Level Salt Lake Center
Wed 03:31:26 AM 38.1950 -111.4256 54° Northeast 451 519 37,000  Level Salt Lake Center
Wed 03:32:27 AM 38.2689 -111.2961 54° Northeast 453 521 37,000  Level Salt Lake Center
Wed 03:33:27 AM 38.3567 -111.1417 54° Northeast 451 519 37,000  Level Salt Lake Center
Wed 03:34:27 AM 38.4300 -111.0111 54° Northeast 452 520 37,000  Level Salt Lake Center
Wed 03:35:28 AM 38.4994 -110.8825 55° Northeast 450 518 37,000  Level Salt Lake Center
Wed 03:36:28 AM 38.5686 -110.7594 54° Northeast 447 514 37,000  Level Salt Lake Center
Wed 03:37:29 AM 38.6389 -110.6342 54° Northeast 451 519 37,000  Level Salt Lake Center
Wed 03:38:04 AM 38.6839 -110.5497 56° Northeast 449 517 37,000  Level Denver Center
Wed 03:39:05 AM 38.7522 -110.4244 55° Northeast 449 517 37,000  Level Denver Center
Wed 03:39:30 AM 38.7869 -110.3628 54° Northeast 448 516 37,000  Level Salt Lake Center
Wed 03:40:30 AM 38.8556 -110.2378 55° Northeast 448 516 37,000  Level Salt Lake Center
Wed 03:41:06 AM 38.8978 -110.1519 58° Northeast 445 512 37,000  Level Denver Center
Wed 03:41:30 AM 38.9344 -110.0919 52° Northeast 445 512 37,000  Level Salt Lake Center
Wed 03:42:31 AM 39.0022 -109.9669 55° Northeast 445 512 37,000  Level Salt Lake Center
Wed 03:43:31 AM 39.0686 -109.8417 56° Northeast 444 511 37,000  Level Salt Lake Center
Wed 03:44:32 AM 39.1361 -109.7164 55° Northeast 445 512 37,000  Level Salt Lake Center
Wed 03:45:32 AM 39.2150 -109.5686 55° Northeast 448 516 37,000  Level Salt Lake Center
Wed 03:46:08 AM 39.2475 -109.5031 57° Northeast 447 514 37,000  Level Denver Center
Wed 03:47:08 AM 39.3250 -109.3558 56° Northeast 444 511 37,000  Level Denver Center
Wed 03:48:09 AM 39.3936 -109.2283 55° Northeast 450 518 37,000  Level Denver Center
Wed 03:49:09 AM 39.4603 -109.1014 56° Northeast 449 517 37,000  Level Denver Center
Wed 03:49:33 AM 39.4947 -109.0386 55° Northeast 450 518 37,000  Level Salt Lake Center
Wed 03:50:34 AM 39.5611 -108.9103 56° Northeast 449 517 37,000  Level Salt Lake Center
Wed 03:51:10 AM 39.6089 -108.8167 56° Northeast 449 517 37,000  Level Denver Center
Wed 03:52:10 AM 39.6808 -108.6783 56° Northeast 460 529 37,000  Level Denver Center
Wed 03:53:11 AM 39.7481 -108.5483 56° Northeast 455 524 37,000  Level Denver Center
Wed 03:54:11 AM 39.8153 -108.4181 56° Northeast 453 521 37,000  Level Denver Center
Wed 03:55:12 AM 39.8975 -108.2644 55° Northeast 461 531 37,000  Level Denver Center
Wed 03:56:12 AM 39.9617 -108.1325 58° Northeast 449 517 37,000  Level Denver Center
Wed 03:57:13 AM 40.0294 -107.9992 56° Northeast 461 531 37,000  Level Denver Center
Wed 03:58:13 AM 40.0914 -107.8286 65° Northeast 469 540 37,000  Level Denver Center
Wed 03:59:14 AM 40.1253 -107.6733 74° East 468 539 37,000  Level Denver Center
Wed 04:00:14 AM 40.1603 -107.5181 74° East 466 536 37,000  Level Denver Center
Wed 04:01:14 AM 40.1947 -107.3636 74° East 463 533 37,000  Level Denver Center
Wed 04:02:15 AM 40.2364 -107.1822 73° East 465 535 37,000  Level Denver Center
Wed 04:03:15 AM 40.2719 -107.0247 73° East 470 541 37,000  Level Denver Center
Wed 04:04:16 AM 40.3067 -106.8678 74° East 469 540 37,000  Level Denver Center
Wed 04:05:16 AM 40.3478 -106.6986 72° East 479 551 37,000  Level Denver Center
Wed 04:06:17 AM 40.3853 -106.5303 74° East 480 552 37,000  Level Denver Center
Wed 04:07:17 AM 40.4206 -106.3553 75° East 485 558 37,000  Level Denver Center
Wed 04:08:17 AM 40.4628 -106.1650 74° East 486 559 37,000  Level Denver Center
Wed 04:09:18 AM 40.4989 -105.9953 74° East 486 559 37,000  Level Denver Center
Wed 04:10:18 AM 40.5356 -105.8225 74° East 489 563 37,000  Level Denver Center
Wed 04:11:19 AM 40.5708 -105.6525 75° East 486 559 37,000  Level Denver Center
Wed 04:12:19 AM 40.6072 -105.4806 74° East 484 557 37,000  Level Denver Center
Wed 04:13:20 AM 40.6431 -105.3081 75° East 487 560 37,000  Level Denver Center
Wed 04:14:20 AM 40.6789 -105.1367 75° East 487 560 37,000  Level Denver Center
Wed 04:15:20 AM 40.7133 -104.9664 75° East 481 554 37,000  Level Denver Center
Wed 04:16:21 AM 40.7467 -104.7894 76° East 492 566 37,000  Level Denver Center
Wed 04:17:21 AM 40.7808 -104.6181 75° East 486 559 37,000  Level Denver Center
Wed 04:18:22 AM 40.8167 -104.4422 75° East 493 567 37,000  Level Denver Center
Wed 04:19:22 AM 40.8508 -104.2647 76° East 497 572 37,000 -100 Level Denver Center
Wed 04:20:22 AM 40.8861 -104.0875 75° East 498 573 36,800 -694 Descending Denver Center
Wed 04:21:23 AM 40.9206 -103.9108 75° East 496 571 35,600 -1,190 Descending Denver Center
Wed 04:22:23 AM 40.9536 -103.7339 76° East 497 572 34,400 -1,190 Descending Denver Center
Wed 04:23:24 AM 40.9878 -103.5572 76° East 502 578 33,200 -694 Descending Denver Center
Wed 04:24:24 AM 41.0219 -103.3858 75° East 505 581 33,000 -100 Descending Denver Center
Wed 04:25:24 AM 41.0614 -103.1817 76° East 513 590 33,000  Level Denver Center
Wed 04:26:25 AM 41.0936 -103.0056 76° East 515 593 33,000  Level Denver Center
Wed 04:27:25 AM 41.1128 -102.8128 82° East 511 588 33,000  Level Denver Center
Wed 04:28:26 AM 41.1256 -102.6333 85° East 510 587 33,000  Level Denver Center
Wed 04:29:26 AM 41.1397 -102.4533 84° East 513 590 33,000  Level Denver Center
Wed 04:30:26 AM 41.1558 -102.2428 84° East 513 590 33,000  Level Denver Center
Wed 04:31:27 AM 41.1694 -102.0619 84° East 515 593 33,000  Level Denver Center
Wed 04:32:27 AM 41.1803 -101.8811 85° East 515 593 33,000  Level Denver Center
Wed 04:33:28 AM 41.1950 -101.6686 85° East 516 594 33,000  Level Denver Center
Wed 04:34:28 AM 41.2075 -101.4858 85° East 518 596 33,000  Level Denver Center
Wed 04:35:28 AM 41.2203 -101.3025 85° East 518 596 33,000  Level Denver Center
Wed 04:36:29 AM 41.2336 -101.1172 84° East 523 602 33,000  Level Denver Center
Wed 04:37:29 AM 41.2469 -100.9003 85° East 524 603 33,000  Level Denver Center
Wed 04:38:29 AM 41.2594 -100.7142 85° East 524 603 33,000  Level Denver Center
Wed 04:39:30 AM 41.2694 -100.5294 86° East 520 598 33,000  Level Denver Center
Wed 04:40:30 AM 41.2806 -100.3464 85° East 518 596 33,000  Level Denver Center
Wed 04:41:30 AM 41.2922 -100.1306 86° East 521 600 33,000  Level Denver Center
Wed 04:42:31 AM 41.3017 -99.9475 86° East 519 597 33,000  Level Denver Center
Wed 04:43:31 AM 41.3108 -99.7636 86° East 520 598 33,000  Level Denver Center
Wed 04:44:31 AM 41.3197 -99.5811 86° East 518 596 33,000  Level Denver Center
Wed 04:45:06 AM 41.3253 -99.4800 86° East 520 598 33,000  Level Minneapolis Center
Wed 04:45:32 AM 41.3311 -99.3636 86° East 521 600 33,000  Level Denver Center
Wed 04:46:32 AM 41.3406 -99.1689 86° East 524 603 33,000  Level Denver Center
Wed 04:47:32 AM 41.3492 -99.0147 86° East 520 598 33,000  Level Denver Center
Wed 04:48:08 AM 41.3533 -98.8697 88° East 521 600 33,000 688 Level Minneapolis Center
Wed 04:49:08 AM 41.3622 -98.6769 86° East 521 600 34,100 1,388 Climbing Minneapolis Center
Wed 04:50:09 AM 41.3706 -98.4844 87° East 522 601 35,800 1,438 Climbing Minneapolis Center
Wed 04:51:09 AM 41.3781 -98.3161 87° East 514 592 37,000 595 Climbing Minneapolis Center
Wed 04:52:10 AM 41.3850 -98.1314 87° East 501 577 37,000  Level Minneapolis Center
Wed 04:53:10 AM 41.3911 -97.9256 88° East 506 582 37,000  Level Minneapolis Center
Wed 04:54:11 AM 41.3967 -97.7331 88° East 516 594 37,000  Level Minneapolis Center
Wed 04:55:12 AM 41.4022 -97.5378 88° East 525 604 37,000  Level Minneapolis Center
Wed 04:56:12 AM 41.4075 -97.3442 88° East 524 603 37,000  Level Minneapolis Center
Wed 04:57:13 AM 41.4114 -97.1514 88° East 523 602 37,000  Level Minneapolis Center
Wed 04:58:13 AM 41.4144 -96.9586 89° East 520 598 37,000  Level Minneapolis Center
Wed 04:59:14 AM 41.4175 -96.7689 89° East 516 594 37,000  Level Minneapolis Center
Wed 05:00:14 AM 41.4203 -96.5789 89° East 513 590 37,000  Level Minneapolis Center
Wed 05:01:15 AM 41.4233 -96.3897 89° East 511 588 37,000  Level Minneapolis Center
Wed 05:02:16 AM 41.4250 -96.1753 89° East 517 595 37,000  Level Minneapolis Center
Wed 05:03:16 AM 41.4292 -95.9858 88° East 512 589 37,000  Level Minneapolis Center
Wed 05:04:17 AM 41.4342 -95.7942 88° East 516 594 37,000  Level Minneapolis Center
Wed 05:05:17 AM 41.4369 -95.6072 89° East 519 597 37,000  Level Minneapolis Center
Wed 05:06:18 AM 41.4389 -95.4122 89° East 524 603 37,000  Level Minneapolis Center
Wed 05:07:18 AM 41.4394 -95.2189 90° East 522 601 37,000  Level Minneapolis Center
Wed 05:08:19 AM 41.4403 -95.0247 90° East 524 603 37,000  Level Minneapolis Center
Wed 05:09:19 AM 41.4408 -94.8275 90° East 530 610 37,000  Level Minneapolis Center
Wed 05:10:20 AM 41.4406 -94.6308 90° East 532 612 37,000  Level Minneapolis Center
Wed 05:11:21 AM 41.4406 -94.4342 90° East 532 612 37,000  Level Minneapolis Center
Wed 05:12:21 AM 41.4411 -94.2367 90° East 533 613 37,000  Level Minneapolis Center
Wed 05:13:22 AM 41.4397 -94.0469 90° East 529 609 37,000  Level Minneapolis Center
Wed 05:14:22 AM 41.4381 -93.8506 91° East 532 612 37,000  Level Minneapolis Center
Wed 05:15:23 AM 41.4358 -93.6564 91° East 530 610 37,000  Level Minneapolis Center
Wed 05:16:23 AM 41.4450 -93.4603 86° East 532 612 37,000  Level Minneapolis Center
Wed 05:17:24 AM 41.4539 -93.2686 86° East 524 603 37,000  Level Minneapolis Center
Wed 05:18:24 AM 41.4633 -93.0764 86° East 522 601 37,000  Level Minneapolis Center
Wed 05:19:25 AM 41.4708 -92.8847 87° East 521 600 37,000  Level Minneapolis Center
Wed 05:20:25 AM 41.4800 -92.6925 86° East 522 601 37,000  Level Minneapolis Center
Wed 05:21:15 AM 41.4883 -92.5014 87° East 518 596 37,000  Level Chicago Center
Wed 05:22:15 AM 41.4953 -92.3294 87° East 516 594 37,000  Level Chicago Center
Wed 05:23:15 AM 41.5019 -92.1411 87° East 515 593 37,000  Level Chicago Center
Wed 05:24:16 AM 41.5094 -91.9525 87° East 515 593 37,000  Level Chicago Center
Wed 05:25:16 AM 41.5147 -91.7639 88° East 515 593 37,000  Level Chicago Center
Wed 05:26:17 AM 41.5200 -91.5389 88° East 513 590 37,000  Level Chicago Center
Wed 05:27:17 AM 41.5228 -91.3492 89° East 516 594 37,000  Level Chicago Center
Wed 05:28:18 AM 41.5275 -91.1614 88° East 514 592 37,000  Level Chicago Center
Wed 05:29:18 AM 41.5325 -90.9717 88° East 517 595 37,000  Level Chicago Center
Wed 05:30:19 AM 41.5356 -90.7828 89° East 516 594 37,000  Level Chicago Center
Wed 05:31:19 AM 41.5386 -90.5767 89° East 517 595 37,000  Level Chicago Center
Wed 05:32:20 AM 41.5397 -90.3822 89° East 521 600 37,000  Level Chicago Center
Wed 05:33:20 AM 41.5414 -90.1883 89° East 520 598 37,000  Level Chicago Center
Wed 05:34:21 AM 41.5419 -89.9917 90° East 526 605 37,000  Level Chicago Center
Wed 05:35:21 AM 41.5444 -89.7961 89° East 525 604 37,000  Level Chicago Center
Wed 05:36:22 AM 41.5456 -89.6025 89° East 523 602 37,000  Level Chicago Center
Wed 05:37:22 AM 41.5442 -89.4150 91° East 507 583 37,000  Level Chicago Center
Wed 05:38:23 AM 41.5447 -89.2272 90° East 507 583 37,000  Level Chicago Center
Wed 05:39:23 AM 41.5481 -89.0400 89° East 508 585 37,000  Level Chicago Center
Wed 05:40:23 AM 41.5467 -88.8536 91° East 503 579 37,000  Level Chicago Center
Wed 05:41:24 AM 41.5461 -88.6667 90° East 505 581 37,000  Level Chicago Center
Wed 05:42:24 AM 41.5461 -88.4792 90° East 504 580 37,000  Level Chicago Center
Wed 05:43:25 AM 41.5508 -88.2900 88° East 506 582 37,000  Level Chicago Center
Wed 05:44:25 AM 41.5725 -88.1008 81° East 506 582 37,000  Level Chicago Center
Wed 05:45:26 AM 41.5958 -87.9119 81° East 505 581 37,000  Level Chicago Center
Wed 05:46:26 AM 41.6172 -87.7269 81° East 503 579 37,000  Level Chicago Center
Wed 05:47:27 AM 41.6375 -87.5419 82° East 503 579 37,000  Level Chicago Center
Wed 05:48:27 AM 41.6583 -87.3575 81° East 502 578 37,000  Level Chicago Center
Wed 05:49:27 AM 41.6775 -87.1728 82° East 503 579 37,000  Level Chicago Center
Wed 05:50:28 AM 41.6781 -86.9858 90° East 504 580 37,000  Level Chicago Center
Wed 05:51:28 AM 41.6842 -86.8003 87° East 503 579 37,000  Level Chicago Center
Wed 05:52:29 AM 41.6869 -86.6258 89° East 502 578 37,000  Level Chicago Center
Wed 05:53:29 AM 41.6917 -86.4394 88° East 501 577 37,000  Level Chicago Center
Wed 05:54:30 AM 41.6964 -86.2542 88° East 501 577 37,000  Level Chicago Center
Wed 05:55:30 AM 41.6975 -86.0678 89° East 501 577 37,000  Level Chicago Center
Wed 05:56:30 AM 41.7000 -85.8836 89° East 496 571 37,000  Level Chicago Center
Wed 05:57:31 AM 41.7039 -85.6992 88° East 497 572 37,000  Level Chicago Center
Wed 05:58:31 AM 41.7053 -85.4908 89° East 497 572 37,000  Level Chicago Center
Wed 05:59:32 AM 41.7064 -85.3078 89° East 495 570 37,000  Level Chicago Center
Wed 06:00:32 AM 41.7103 -85.1269 88° East 512 589 37,000  Level Chicago Center
Wed 06:01:32 AM 41.7111 -84.9422 90° East 497 572 37,000  Level Chicago Center
Wed 06:02:33 AM 41.7103 -84.7589 90° East 494 568 37,000  Level Chicago Center
Wed 06:03:33 AM 41.7094 -84.5733 90° East 499 574 37,000  Level Chicago Center
Wed 06:04:34 AM 41.7081 -84.3894 91° East 496 571 37,000  Level Chicago Center
Wed 06:05:34 AM 41.7069 -84.2033 90° East 500 575 37,000  Level Chicago Center
Wed 06:06:34 AM 41.7069 -84.0189 90° East 498 573 37,000  Level Chicago Center
Wed 06:07:35 AM 41.7067 -83.8342 90° East 498 573 37,000  Level Chicago Center
Wed 06:08:44 AM 41.7014 -83.5953 92° East 495 570 37,000  Level Cleveland Center
Wed 06:09:44 AM 41.7000 -83.4089 91° East 500 575 37,000  Level Cleveland Center
Wed 06:10:45 AM 41.6964 -83.2139 91° East 500 575 37,000  Level Cleveland Center
Wed 06:11:45 AM 41.6942 -83.0219 91° East 511 588 37,000  Level Cleveland Center
Wed 06:12:44 AM 41.6942 -82.8244 90° East 517 595 37,000  Level Cleveland Center
Wed 06:13:45 AM 41.6894 -82.6353 92° East 517 595 37,000  Level Cleveland Center
Wed 06:14:45 AM 41.6864 -82.4406 91° East 517 595 37,000  Level Cleveland Center
Wed 06:15:45 AM 41.6831 -82.2486 91° East 517 595 37,000  Level Cleveland Center
Wed 06:16:45 AM 41.6794 -82.0539 91° East 522 601 37,000  Level Cleveland Center
Wed 06:17:45 AM 41.6756 -81.8619 91° East 513 590 37,000  Level Cleveland Center
Wed 06:18:45 AM 41.6733 -81.6867 91° East 518 596 37,000  Level Cleveland Center
Wed 06:19:45 AM 41.6667 -81.4975 93° East 518 596 37,000  Level Cleveland Center
Wed 06:20:45 AM 41.6597 -81.3058 93° East 518 596 37,000  Level Cleveland Center
Wed 06:21:45 AM 41.6525 -81.0944 93° East 518 596 37,000  Level Cleveland Center
Wed 06:22:45 AM 41.6469 -80.9056 92° East 518 596 37,000  Level Cleveland Center
Wed 06:23:45 AM 41.6408 -80.7108 92° East 518 596 37,000  Level Cleveland Center
Wed 06:24:45 AM 41.6347 -80.5192 92° East 518 596 37,000  Level Cleveland Center
Wed 06:25:45 AM 41.6283 -80.3664 93° East 518 596 37,000  Level Cleveland Center
Wed 06:26:45 AM 41.6236 -80.1553 92° East 518 596 37,000  Level Cleveland Center
Wed 06:27:45 AM 41.6122 -79.9444 94° East 518 596 37,000  Level Cleveland Center
Wed 06:28:45 AM 41.6025 -79.7500 94° East 518 596 37,000  Level Cleveland Center
Wed 06:29:45 AM 41.5864 -79.5617 96° East 518 596 37,000  Level Cleveland Center
Wed 06:30:45 AM 41.5722 -79.3675 96° East 518 596 37,000  Level Cleveland Center
Wed 06:31:45 AM 41.5553 -79.1736 97° East 518 596 37,000  Level Cleveland Center
Wed 06:32:45 AM 41.5403 -78.9769 96° East 518 596 37,000  Level Cleveland Center
Wed 06:33:45 AM 41.5228 -78.7858 97° East 518 596 37,000 -600 Level Cleveland Center
Wed 06:34:45 AM 41.5069 -78.5894 96° East 518 596 35,800 -1,065 Descending Cleveland Center
Wed 06:36:51 AM 41.4719 -78.2056 97° East 527 606 33,700 -898 Descending New York Center
Wed 06:37:52 AM 41.4544 -78.0181 97° East 522 601 33,000 -992 Descending New York Center
Wed 06:38:52 AM 41.4386 -77.8308 96° East 517 595 31,700 -992 Descending New York Center
Wed 06:39:53 AM 41.4206 -77.6406 97° East 512 589 31,000 -347 Descending New York Center
Wed 06:40:53 AM 41.3875 -77.4547 103° East 512 589 31,000 -793 Level New York Center
Wed 06:41:54 AM 41.3556 -77.2775 103° East 512 589 29,400 -1,513 Descending New York Center
Wed 06:42:52 AM 41.3261 -77.0894 102° East 512 589 28,000 -1,475 Descending New York Center
Wed 06:43:52 AM 41.2922 -76.9039 104° East 519 597 26,500 -1,736 Descending New York Center
Wed 06:44:53 AM 41.2600 -76.7161 103° East 519 597 24,500 -2,231 Descending New York Center
Wed 06:45:53 AM 41.2272 -76.5367 104° East 519 597 22,000 -2,529 Descending New York Center
Wed 06:46:54 AM 41.1942 -76.3600 104° East 508 585 19,400 -1,934 Descending New York Center
Wed 06:47:54 AM 41.1686 -76.1869 101° East 483 556 18,100 -706 Descending New York Center
Wed 06:48:53 AM 41.1364 -76.0275 105° East 455 524 18,000 -50 Descending New York Center
Wed 06:49:53 AM 41.0936 -75.8644 109° East 426 490 18,000 -198 Level New York Center
Wed 06:50:54 AM 41.0519 -75.7153 110° East 426 490 17,600 -1,311 Descending New York Center
Wed 06:51:52 AM 41.0119 -75.5722 110° East 426 490 15,400 -2,168 Descending New York Center
Wed 06:52:53 AM 40.9717 -75.4319 111° Southeast 414 476 13,300 -2,213 Descending New York Center
Wed 06:53:54 AM 40.9353 -75.3003 110° East 396 456 10,900 -1,916 Descending New York Center
Wed 06:54:52 AM 40.9078 -75.1969 109° East 351 404 9,500 -1,373 Descending New York Center
Wed 06:55:52 AM 40.8783 -75.0936 111° Southeast 313 360 8,200 -1,240 Descending New York Center
Wed 06:56:53 AM 40.8467 -74.9872 111° Southeast 290 334 7,000 -590 Descending New York Center
Wed 06:57:54 AM 40.8372 -74.9044 99° East 284 327 7,000 -101 Level New York Center
Wed 06:58:52 AM 40.8186 -74.7800 101° East 284 327 6,800 -555 Descending New York Center
Wed 06:59:53 AM 40.7858 -74.6983 118° Southeast 279 321 5,900 -397 Descending New York Center
Wed 07:00:53 AM 40.7125 -74.6478 152° Southeast 273 314 6,000 -412 Climbing New York Center
Wed 07:01:35 AM 40.6667 -74.6167 153° Southeast 254 292 5,200 -556 Descending New York TRACON
Wed 07:02:41 AM 40.6167 -74.5500 135° Southeast 257 296 5,000 -190 Descending New York TRACON
Wed 07:03:41 AM 40.5667 -74.4833 135° Southeast 252 290 4,800 -579 Descending New York TRACON
Wed 07:04:35 AM 40.5333 -74.4000 118° Southeast 240 276 3,900 -947 Descending New York TRACON
Wed 07:05:35 AM 40.5333 -74.3333 90° East 223 257 3,000 -900 Descending New York TRACON

Login

Don't have an account? Register now (free) for customized features, flight alerts, and more!